Baltimore, Maryland
Traffic Map
Current Weather Conditions
Baltimore, Maryland
Overcast Haze
Overcast

Feels Like: 3°
Wind Chill: Ceiling: 8500
Heat Index: Visibility: 5mi
Dew Point: Wind: 0mph
Humidity: 100% Direction: ° ()
Pressure: 29.98in Gusts: 0mph
Raw Report DataKBWI 201254Z 00000KT 5SM BR OVC085 03/03 A2998 RMK AO2 SLP151 T00280028
Traffic Incident Summary
Active as of:
Severity:
Category:
InformationThere was an issue retrieving the traffic information for this location. Please try a different location or try again shortly.
Advertisements
Track Severe Weather on mobile